cigarworld.de alexa rank chart, cigarworld.de alexa rank daily changes

cigarworld.de alexa rank chart, cigarworld.de alexa rank daily changes

cigarworld.de
Actual rank:
153 136

RANK HISTORY

Date Rank Diff
2017/05/24 153 136 +2 274
2017/05/23 150 862 +2 841
2017/05/22 148 021 +4 267
2017/05/21 143 754 +5 097
2017/05/20 138 657 +907
2017/05/19 137 750 +1 969
2017/05/18 135 781 -1 005
2017/05/17 136 786 -617
2017/05/16 137 403 +1 514
2017/05/15 135 889 -3 704
2017/05/14 139 593 +1 880
2017/05/13 137 713 +4 672
2017/05/12 133 041 +2 545
2017/05/11 130 496 +6 126
2017/05/10 124 370 +2 830
2017/05/09 121 540 +1 286
2017/05/08 120 254 +294
2017/05/07 119 960 +3 015
2017/05/06 116 945 -121
2017/05/05 117 066 -1 222
2017/05/04 118 288 -895
2017/05/03 119 183 +51
2017/05/02 119 132 -1 731
2017/05/01 120 863 -5 917
2017/04/30 126 780 -76
2017/04/29 126 856 -2 592
2017/04/28 129 448 -4 310
2017/04/27 133 758 -2 439
2017/04/26 136 197 -1 398
2017/04/25 137 595 -429
2017/04/24 138 024 -6 578
2017/04/23 144 602 -152
2017/04/22 144 754 -651
2017/04/21 145 405 -2 314
2017/04/20 147 719 -1 422
2017/04/19 149 141 -1 127
2017/04/18 150 268 -6 293
2017/04/17 156 561 -381
2017/04/16 156 942 -2 215
2017/04/15 159 157 -2 539
2017/04/14 161 696 -568
2017/04/13 162 264 -4 785
2017/04/12 167 049 -7 341
2017/04/11 174 390 -10 795
2017/04/10 185 185 -7 995
2017/04/09 193 180 -70
2017/04/08 193 250 +3 134
2017/04/07 190 116 -7 932
2017/04/06 198 048 -3 411
2017/04/05 201 459 -468
2017/04/04 201 927 +6 586
2017/04/03 195 341 -5 008
2017/04/02 200 349 -697
2017/04/01 201 046 +1 309
2017/03/31 199 737 +3 967
2017/03/30 195 770 -47
2017/03/29 195 817 -7 347
2017/03/28 203 164 +3 550
2017/03/27 199 614 -4 927
2017/03/26 204 541 -6 254
2017/03/25 210 795

WIDGET FOR YOUR SITE

DOMAINS WITH THE NEAREST RANK

Domain Rank
boardgamebliss.com 153 131
creativersegame.com 153 132
cashbackkorting.nl 153 133
hzpp.hr 153 134
syuuchisoku.com 153 135
cigarworld.de 153 136
cornercard.ch 153 137
hino.co.jp 153 138
mytv365.com 153 139
novosti-kosmonavtiki.ru 153 140
renders-graphiques.fr 153 141

DOMAINS WITH THE NEAREST RANK BY TLD .de

Domain Rank
supra-space.de 152 949
justiz-auktion.de 152 951
campen.de 153 031
videoload.de 153 049
filmportal.de 153 061
cigarworld.de 153 136
utf8-chartable.de 153 183
uitmuntend.de 153 215
sparkasse-neckartal-odenwald.de 153 242
fh-flensburg.de 153 275
drohnen.de 153 334